Hope, Texas
Current Conditions -  °F | °C
As of 3:35 AM on Sunday 26 Oct 2014 (Local Time) from KVCT Reporting Station
Moderate Fog Moderate Fog  
Wind Chill: 58°   Ceiling: 300
Heat Index: 58°   Visibility: 0.25mi
Dew Point: 55°   Wind: 0mph
Humidity: 90%   Direction: NA
Pressure: 30.06"   Gusts: NA
Location:  29.2421°N, 97.0692°W
Report Text: KVCT 260835Z AUTO 00000KT 1/4SM FG VV003 14/13 A3006 RMK AO2 T01440128
Loading
Personal Weather Stations






























Interactive Weather Map
Tropical Storm Tracking
New forecast layout! Learn more

10-Day Weather Forecast

Advertisements
Track Severe Weather on mobile